Time;durP1;ratioP1;P1;durP2;ratioP2;P2;SDS_P1;SDS_P2;PMS_P1;PMS_P2;Temp;Humidity;BMP_temperature;BMP_pressure;BME280_temperature;BME280_humidity;BME280_pressure;Samples;Min_cycle;Max_cycle;Signal;HPM_P1;HPM_P2
2022/06/08 00:02:15;;;;;;;3.20;2.70;;;;;;;;;;1781494;80;21020;-73
2022/06/08 00:04:41;;;;;;;3.77;2.47;;;;;;;;;;1770917;80;21036;-75
2022/06/08 00:07:08;;;;;;;2.45;2.25;;;;;;;;;;1760310;80;21552;-74
2022/06/08 00:09:35;;;;;;;3.72;2.30;;;;;;;;;;1769228;80;21360;-74
2022/06/08 00:12:03;;;;;;;3.67;2.60;;;;;;;;;;1783633;80;21559;-74
2022/06/08 00:14:29;;;;;;;3.77;2.27;;;;;;;;;;1775402;80;21081;-75
2022/06/08 00:16:55;;;;;;;2.72;2.20;;;;;;;;;;1751978;80;21563;-74
2022/06/08 00:19:22;;;;;;;2.87;2.37;;;;;;;;;;1761185;80;21456;-74
2022/06/08 00:21:50;;;;;;;4.10;2.30;;;;;;;;;;1767380;80;21065;-72
2022/06/08 00:24:18;;;;;;;3.80;2.40;;;;;;;;;;1771845;80;20976;-73
2022/06/08 00:26:44;;;;;;;2.80;2.35;;;;;;;;;;1783609;80;21095;-73
2022/06/08 00:29:10;;;;;;;2.47;2.27;;;;;;;;;;1781512;80;21029;-73
2022/06/08 00:31:38;;;;;;;3.27;2.40;;;;;;;;;;1783900;80;20989;-72
2022/06/08 00:34:03;;;;;;;4.05;2.60;;;;;;;;;;1776547;80;20990;-73
2022/06/08 00:36:30;;;;;;;2.83;2.30;;;;;;;;;;1748052;80;21038;-73
2022/06/08 00:38:57;;;;;;;2.40;2.20;;;;;;;;;;1760808;80;21112;-73
2022/06/08 00:41:25;;;;;;;4.78;2.37;;;;;;;;;;1792968;80;21229;-73
2022/06/08 00:43:52;;;;;;;3.95;2.52;;;;;;;;;;1789524;80;21050;-73
2022/06/08 00:46:18;;;;;;;2.67;2.12;;;;;;;;;;1761698;80;21025;-73
2022/06/08 00:48:49;;;;;;;5.62;2.42;;;;;;;;;;1762046;80;21099;-72
2022/06/08 00:51:16;;;;;;;3.20;2.27;;;;;;;;;;1781761;80;21024;-73
2022/06/08 00:53:44;;;;;;;4.30;2.40;;;;;;;;;;1756800;81;21036;-73
2022/06/08 00:56:11;;;;;;;3.40;2.55;;;;;;;;;;1761560;80;21009;-73
2022/06/08 00:58:38;;;;;;;3.58;2.25;;;;;;;;;;1761341;80;21041;-73
2022/06/08 01:04:13;;;;;;;2.67;2.27;;;;;;;;;;1753510;80;21142;-73
2022/06/08 01:06:41;;;;;;;3.08;2.42;;;;;;;;;;1766794;81;21020;-73
2022/06/08 01:09:09;;;;;;;3.15;2.50;;;;;;;;;;1748305;82;21520;-73
2022/06/08 01:11:40;;;;;;;3.65;2.52;;;;;;;;;;1766244;81;21055;-73
2022/06/08 01:14:14;;;;;;;3.33;2.40;;;;;;;;;;1748235;82;21635;-73
2022/06/08 01:16:42;;;;;;;5.42;3.12;;;;;;;;;;1748236;82;21037;-74
2022/06/08 01:19:08;;;;;;;3.98;2.30;;;;;;;;;;1748537;82;21459;-73
2022/06/08 01:21:35;;;;;;;2.65;2.30;;;;;;;;;;1748057;82;21044;-74
2022/06/08 01:24:05;;;;;;;2.85;2.47;;;;;;;;;;1747129;82;21005;-73
2022/06/08 01:26:39;;;;;;;2.45;2.22;;;;;;;;;;1766810;81;21051;-73
2022/06/08 01:29:07;;;;;;;3.33;2.70;;;;;;;;;;1766891;81;21036;-73
2022/06/08 01:31:52;;;;;;;3.40;2.40;;;;;;;;;;1747770;82;21072;-73
2022/06/08 01:34:20;;;;;;;3.85;2.70;;;;;;;;;;1766981;81;21016;-73
2022/06/08 01:36:48;;;;;;;4.60;2.47;;;;;;;;;;1766825;81;21530;-73
2022/06/08 01:39:22;;;;;;;4.15;2.45;;;;;;;;;;1748529;82;21029;-73
2022/06/08 01:41:53;;;;;;;3.52;2.58;;;;;;;;;;1766765;81;21071;-74
2022/06/08 01:44:21;;;;;;;2.75;2.35;;;;;;;;;;1739521;82;21520;-74
2022/06/08 01:46:49;;;;;;;8.45;3.08;;;;;;;;;;1748032;82;21527;-74
2022/06/08 01:49:22;;;;;;;4.55;2.62;;;;;;;;;;1748350;82;21040;-74
2022/06/08 01:51:56;;;;;;;6.58;3.02;;;;;;;;;;1748446;82;21538;-74
2022/06/08 01:54:31;;;;;;;4.40;2.83;;;;;;;;;;1748391;82;21523;-74
2022/06/08 01:57:04;;;;;;;4.42;2.80;;;;;;;;;;1718645;81;21075;-74
2022/06/08 01:59:49;;;;;;;5.17;2.87;;;;;;;;;;1748126;82;21041;-74
2022/06/08 02:02:18;;;;;;;4.95;3.02;;;;;;;;;;1748408;82;21076;-74
2022/06/08 02:04:47;;;;;;;6.30;3.50;;;;;;;;;;1772889;78;21112;-73
2022/06/08 02:07:15;;;;;;;6.80;3.42;;;;;;;;;;1783976;80;21056;-73
2022/06/08 02:09:43;;;;;;;6.35;2.87;;;;;;;;;;1783330;80;21037;-73
2022/06/08 02:12:11;;;;;;;4.50;2.92;;;;;;;;;;1779892;80;20989;-73
2022/06/08 02:14:42;;;;;;;5.20;3.20;;;;;;;;;;1765472;80;21068;-73
2022/06/08 02:17:19;;;;;;;4.75;3.02;;;;;;;;;;1763861;80;21083;-73
2022/06/08 02:19:46;;;;;;;5.25;2.87;;;;;;;;;;1739150;80;21552;-73
2022/06/08 02:22:22;;;;;;;4.20;3.05;;;;;;;;;;1778799;80;21064;-73
2022/06/08 02:24:50;;;;;;;4.55;3.00;;;;;;;;;;1780528;80;21530;-73
2022/06/08 02:27:25;;;;;;;4.28;2.95;;;;;;;;;;1767166;80;21005;-73
2022/06/08 02:30:05;;;;;;;5.25;3.08;;;;;;;;;;1760199;80;21040;-74
2022/06/08 02:35:20;;;;;;;3.50;2.90;;;;;;;;;;1708098;82;21473;-73
2022/06/08 02:37:48;;;;;;;3.65;2.87;;;;;;;;;;1776128;80;21114;-73
2022/06/08 02:40:22;;;;;;;6.03;3.17;;;;;;;;;;1755358;80;21547;-73
2022/06/08 02:42:51;;;;;;;3.65;2.50;;;;;;;;;;1758498;80;21579;-74
2022/06/08 02:45:38;;;;;;;5.90;3.70;;;;;;;;;;1764332;80;21028;-73
2022/06/08 02:48:06;;;;;;;4.70;3.00;;;;;;;;;;1758907;80;21016;-73
2022/06/08 02:50:33;;;;;;;5.78;3.12;;;;;;;;;;1763901;80;20981;-72
2022/06/08 02:53:05;;;;;;;3.90;2.72;;;;;;;;;;1762892;80;20993;-73
2022/06/08 02:55:33;;;;;;;3.83;2.65;;;;;;;;;;1766933;80;21538;-73
2022/06/08 02:58:01;;;;;;;5.03;2.80;;;;;;;;;;1761135;80;21053;-73
2022/06/08 03:00:30;;;;;;;4.62;2.37;;;;;;;;;;1760147;80;20997;-73
2022/06/08 03:03:15;;;;;;;4.00;2.52;;;;;;;;;;1769782;79;21072;-73
2022/06/08 03:05:43;;;;;;;3.50;2.55;;;;;;;;;;1777078;80;21461;-73
2022/06/08 03:08:12;;;;;;;3.00;2.50;;;;;;;;;;1754170;81;21092;-73
2022/06/08 03:10:40;;;;;;;5.60;2.90;;;;;;;;;;1766486;81;21069;-73
2022/06/08 03:13:11;;;;;;;4.42;2.62;;;;;;;;;;1778730;81;21025;-73
2022/06/08 03:15:39;;;;;;;3.90;2.60;;;;;;;;;;1773910;81;21104;-75
2022/06/08 03:18:06;;;;;;;3.55;2.50;;;;;;;;;;1754842;81;21036;-74
2022/06/08 03:20:34;;;;;;;4.58;2.70;;;;;;;;;;1752741;81;21036;-74
2022/06/08 03:23:00;;;;;;;3.10;2.72;;;;;;;;;;1753133;81;21071;-74
2022/06/08 03:25:28;;;;;;;3.40;2.60;;;;;;;;;;1771800;81;21017;-74
2022/06/08 03:27:55;;;;;;;3.58;2.70;;;;;;;;;;1737099;82;21551;-75
2022/06/08 03:30:22;;;;;;;5.03;2.70;;;;;;;;;;1737937;82;21107;-74
2022/06/08 03:32:49;;;;;;;4.05;2.83;;;;;;;;;;1734493;82;21033;-73
2022/06/08 03:35:15;;;;;;;5.37;3.08;;;;;;;;;;1734529;82;21537;-74
2022/06/08 03:37:43;;;;;;;3.52;2.72;;;;;;;;;;1734402;82;21623;-73
2022/06/08 03:40:12;;;;;;;5.03;2.92;;;;;;;;;;1734079;82;21041;-74
2022/06/08 03:42:38;;;;;;;3.47;2.58;;;;;;;;;;1734458;83;21006;-74
2022/06/08 03:45:05;;;;;;;3.58;2.85;;;;;;;;;;1735002;82;21118;-74
2022/06/08 03:47:33;;;;;;;5.45;2.95;;;;;;;;;;1735260;83;21521;-74
2022/06/08 03:50:00;;;;;;;3.37;2.72;;;;;;;;;;1736996;82;21037;-74
2022/06/08 03:52:26;;;;;;;3.37;2.70;;;;;;;;;;1734357;82;21077;-74
2022/06/08 03:54:55;;;;;;;4.67;2.60;;;;;;;;;;1734210;82;21064;-75
2022/06/08 03:57:21;;;;;;;3.35;2.20;;;;;;;;;;1736581;82;21040;-75
2022/06/08 03:59:48;;;;;;;3.60;2.77;;;;;;;;;;1738382;82;21484;-75
2022/06/08 04:02:15;;;;;;;3.27;2.50;;;;;;;;;;1736916;81;21058;-75
2022/06/08 04:04:42;;;;;;;4.85;2.85;;;;;;;;;;1738104;81;21123;-75
2022/06/08 04:07:08;;;;;;;3.10;2.45;;;;;;;;;;1743406;82;21017;-75
2022/06/08 04:09:37;;;;;;;3.42;2.60;;;;;;;;;;1742257;82;21100;-73
2022/06/08 04:12:05;;;;;;;2.42;2.10;;;;;;;;;;1716701;82;21033;-73
2022/06/08 04:14:32;;;;;;;3.15;2.27;;;;;;;;;;1743612;82;21592;-73
2022/06/08 04:16:58;;;;;;;3.22;2.30;;;;;;;;;;1739737;82;21046;-73
2022/06/08 04:19:25;;;;;;;2.70;2.05;;;;;;;;;;1743340;82;21040;-73
2022/06/08 04:21:52;;;;;;;3.80;1.95;;;;;;;;;;1744092;82;20985;-73
2022/06/08 04:24:18;;;;;;;4.37;2.08;;;;;;;;;;1742264;82;21481;-73
2022/06/08 04:26:47;;;;;;;4.90;2.37;;;;;;;;;;1743177;82;21029;-74
2022/06/08 04:29:18;;;;;;;4.35;2.02;;;;;;;;;;1743638;82;21005;-73
2022/06/08 04:31:45;;;;;;;29.27;3.58;;;;;;;;;;1743981;82;21006;-73
2022/06/08 04:34:13;;;;;;;23.70;2.80;;;;;;;;;;1732260;82;21042;-73
2022/06/08 04:36:40;;;;;;;12.50;2.77;;;;;;;;;;1755371;82;21000;-73
2022/06/08 04:39:07;;;;;;;8.53;2.12;;;;;;;;;;1760411;80;21028;-74
2022/06/08 04:41:34;;;;;;;5.83;2.08;;;;;;;;;;1743139;82;21057;-73
2022/06/08 04:44:02;;;;;;;38.78;4.95;;;;;;;;;;1742511;82;21052;-73
2022/06/08 04:46:28;;;;;;;2.20;1.80;;;;;;;;;;1742608;82;22123;-73
2022/06/08 04:48:55;;;;;;;2.83;1.90;;;;;;;;;;1733915;82;21039;-73
2022/06/08 04:51:23;;;;;;;2.20;1.98;;;;;;;;;;1738729;82;21038;-73
2022/06/08 04:53:49;;;;;;;2.00;1.80;;;;;;;;;;1738439;82;21049;-73
2022/06/08 04:56:16;;;;;;;2.92;1.95;;;;;;;;;;1732737;83;20990;-73
2022/06/08 04:58:43;;;;;;;5.53;2.27;;;;;;;;;;1741159;82;21049;-73
2022/06/08 05:01:10;;;;;;;4.10;1.98;;;;;;;;;;1742634;82;21064;-73
2022/06/08 05:03:36;;;;;;;15.93;2.65;;;;;;;;;;1714183;81;21627;-74
2022/06/08 05:06:02;;;;;;;4.35;2.20;;;;;;;;;;1744395;82;21048;-73
2022/06/08 05:08:30;;;;;;;7.28;2.27;;;;;;;;;;1752196;82;21071;-72
2022/06/08 05:10:57;;;;;;;2.92;1.80;;;;;;;;;;1753824;82;21052;-72
2022/06/08 05:13:26;;;;;;;19.60;3.08;;;;;;;;;;1721099;83;21029;-73
2022/06/08 05:15:54;;;;;;;35.20;5.12;;;;;;;;;;1717396;83;21093;-73
2022/06/08 05:18:24;;;;;;;3.12;1.80;;;;;;;;;;1707438;83;21541;-73
2022/06/08 05:20:53;;;;;;;6.42;2.00;;;;;;;;;;1686886;85;21053;-73
2022/06/08 05:23:22;;;;;;;4.12;1.87;;;;;;;;;;1689457;83;20964;-73
2022/06/08 05:25:49;;;;;;;1.95;1.67;;;;;;;;;;1714146;83;21511;-73
2022/06/08 05:28:16;;;;;;;13.83;2.50;;;;;;;;;;1716335;83;21033;-74
2022/06/08 05:30:44;;;;;;;2.00;1.82;;;;;;;;;;1712794;83;20997;-72
2022/06/08 05:33:13;;;;;;;6.47;2.30;;;;;;;;;;1721316;83;21042;-74
2022/06/08 05:35:39;;;;;;;3.72;2.00;;;;;;;;;;1721480;83;21529;-73
2022/06/08 05:38:08;;;;;;;2.80;1.70;;;;;;;;;;1706504;84;21053;-74
2022/06/08 05:40:37;;;;;;;14.15;2.87;;;;;;;;;;1706433;84;21563;-73
2022/06/08 05:43:05;;;;;;;9.28;2.40;;;;;;;;;;1700223;83;21565;-73
2022/06/08 05:45:32;;;;;;;3.70;2.10;;;;;;;;;;1700008;84;21631;-73
2022/06/08 05:47:58;;;;;;;2.80;1.80;;;;;;;;;;1692687;83;21541;-73
2022/06/08 05:50:25;;;;;;;2.40;1.82;;;;;;;;;;1722190;83;21073;-73
2022/06/08 05:52:53;;;;;;;2.10;1.72;;;;;;;;;;1721232;83;21097;-73
2022/06/08 05:55:19;;;;;;;9.23;2.30;;;;;;;;;;1722318;83;21023;-73
2022/06/08 05:57:48;;;;;;;2.08;1.80;;;;;;;;;;1721137;83;21621;-73
2022/06/08 06:00:16;;;;;;;4.15;1.90;;;;;;;;;;1721476;83;21680;-73
2022/06/08 06:02:45;;;;;;;1.92;1.72;;;;;;;;;;1721233;82;21105;-73
2022/06/08 06:05:14;;;;;;;3.50;2.00;;;;;;;;;;1722292;83;21561;-73
2022/06/08 06:07:42;;;;;;;6.33;2.10;;;;;;;;;;1724138;83;21041;-73
2022/06/08 06:10:17;;;;;;;2.27;1.77;;;;;;;;;;1722041;83;21578;-73
2022/06/08 06:12:44;;;;;;;2.77;1.80;;;;;;;;;;1760165;81;21427;-73
2022/06/08 06:15:13;;;;;;;2.35;1.77;;;;;;;;;;1732099;81;21029;-74
2022/06/08 06:17:40;;;;;;;2.17;1.75;;;;;;;;;;1727746;83;21015;-73
2022/06/08 06:20:07;;;;;;;3.22;1.70;;;;;;;;;;1746734;81;21499;-73
2022/06/08 06:22:37;;;;;;;1.98;1.67;;;;;;;;;;1764362;80;21040;-73
2022/06/08 06:25:05;;;;;;;5.85;1.90;;;;;;;;;;1725759;82;21592;-73
2022/06/08 06:27:45;;;;;;;3.00;1.72;;;;;;;;;;1725325;82;21517;-73
2022/06/08 06:30:13;;;;;;;1.67;1.57;;;;;;;;;;1708995;82;21094;-73
2022/06/08 06:32:42;;;;;;;23.22;3.12;;;;;;;;;;1724947;82;21054;-73
2022/06/08 06:35:11;;;;;;;6.60;1.90;;;;;;;;;;1690194;85;21534;-73
2022/06/08 06:37:37;;;;;;;3.45;2.15;;;;;;;;;;1727598;81;21030;-72
2022/06/08 06:40:07;;;;;;;4.65;2.02;;;;;;;;;;1726759;83;21026;-73
2022/06/08 06:42:33;;;;;;;1.90;1.55;;;;;;;;;;1699177;84;21007;-73
2022/06/08 06:45:10;;;;;;;4.47;1.80;;;;;;;;;;1645952;85;21077;-73
2022/06/08 06:47:46;;;;;;;3.42;1.70;;;;;;;;;;1742964;82;21000;-72
2022/06/08 06:50:14;;;;;;;3.35;1.85;;;;;;;;;;1731559;82;21074;-73
2022/06/08 06:52:41;;;;;;;1.82;1.62;;;;;;;;;;1723946;83;21002;-72
2022/06/08 06:55:12;;;;;;;3.47;1.70;;;;;;;;;;1728956;81;21024;-72
2022/06/08 06:57:39;;;;;;;2.90;1.80;;;;;;;;;;1741502;82;20988;-73
2022/06/08 07:00:06;;;;;;;2.10;1.80;;;;;;;;;;1736219;82;21111;-73
2022/06/08 07:02:33;;;;;;;14.20;2.47;;;;;;;;;;1728281;81;21131;-74
2022/06/08 07:04:59;;;;;;;1.70;1.60;;;;;;;;;;1731346;82;21033;-73
2022/06/08 07:07:26;;;;;;;3.80;2.00;;;;;;;;;;1744473;82;21580;-73
2022/06/08 07:09:52;;;;;;;3.40;1.95;;;;;;;;;;1744570;82;21587;-74
2022/06/08 07:12:20;;;;;;;4.05;1.90;;;;;;;;;;1744617;82;21029;-74
2022/06/08 07:14:49;;;;;;;2.22;1.62;;;;;;;;;;1744181;82;21524;-73
2022/06/08 07:17:17;;;;;;;2.08;1.70;;;;;;;;;;1744516;82;21014;-73
2022/06/08 07:19:45;;;;;;;5.62;2.00;;;;;;;;;;1744224;82;21057;-74
2022/06/08 07:22:12;;;;;;;6.28;1.75;;;;;;;;;;1744470;82;21033;-73
2022/06/08 07:24:39;;;;;;;1.77;1.67;;;;;;;;;;1744687;82;21065;-73
2022/06/08 07:27:05;;;;;;;11.05;2.50;;;;;;;;;;1744612;82;21084;-73
2022/06/08 07:29:33;;;;;;;6.95;1.90;;;;;;;;;;1744753;82;21037;-73
2022/06/08 07:31:59;;;;;;;3.85;1.87;;;;;;;;;;1744640;82;21084;-75
2022/06/08 07:34:25;;;;;;;2.85;1.90;;;;;;;;;;1744485;82;21041;-74
2022/06/08 07:36:51;;;;;;;1.85;1.60;;;;;;;;;;1744313;82;21106;-75
2022/06/08 07:39:19;;;;;;;3.72;1.75;;;;;;;;;;1744570;82;21567;-75
2022/06/08 07:41:46;;;;;;;2.47;1.50;;;;;;;;;;1744581;82;21001;-73
2022/06/08 07:44:14;;;;;;;1.87;1.52;;;;;;;;;;1745049;81;21037;-74
2022/06/08 07:46:40;;;;;;;1.85;1.67;;;;;;;;;;1745687;81;21017;-73
2022/06/08 07:51:54;;;;;;;2.47;1.80;;;;;;;;;;1736661;82;21537;-72
2022/06/08 07:54:22;;;;;;;2.10;1.70;;;;;;;;;;1734714;82;21302;-72
2022/06/08 07:56:49;;;;;;;2.90;1.87;;;;;;;;;;1725442;82;21021;-73
2022/06/08 07:59:15;;;;;;;1.65;1.55;;;;;;;;;;1735472;83;21071;-73
2022/06/08 08:01:42;;;;;;;3.45;1.72;;;;;;;;;;1741607;81;21068;-74
2022/06/08 08:04:08;;;;;;;2.52;1.70;;;;;;;;;;1734455;81;22187;-73
2022/06/08 08:06:34;;;;;;;3.98;2.58;;;;;;;;;;1744533;82;21080;-74
2022/06/08 08:09:00;;;;;;;4.40;1.80;;;;;;;;;;1757770;81;21008;-74
2022/06/08 08:11:27;;;;;;;3.42;1.98;;;;;;;;;;1757598;81;21469;-72
2022/06/08 08:13:53;;;;;;;1.85;1.70;;;;;;;;;;1778400;81;21016;-73
2022/06/08 08:16:21;;;;;;;3.00;1.77;;;;;;;;;;1778670;81;21516;-72
2022/06/08 08:18:48;;;;;;;2.42;1.90;;;;;;;;;;1769886;81;21036;-73
2022/06/08 08:21:14;;;;;;;2.10;1.87;;;;;;;;;;1755052;81;20993;-75
2022/06/08 08:23:41;;;;;;;8.10;2.10;;;;;;;;;;1763348;80;21064;-71
2022/06/08 08:26:07;;;;;;;7.40;2.12;;;;;;;;;;1759107;81;21544;-79
2022/06/08 08:28:33;;;;;;;3.90;2.10;;;;;;;;;;1753239;82;21038;-80
2022/06/08 08:30:59;;;;;;;2.80;2.08;;;;;;;;;;1753708;82;20986;-80
2022/06/08 08:33:26;;;;;;;2.10;1.90;;;;;;;;;;1753916;82;21587;-79
2022/06/08 08:35:52;;;;;;;3.40;1.90;;;;;;;;;;1753719;82;21037;-79
2022/06/08 08:38:21;;;;;;;2.05;1.85;;;;;;;;;;1753761;82;21050;-79
2022/06/08 08:40:55;;;;;;;3.20;2.10;;;;;;;;;;1753532;82;21038;-79
2022/06/08 08:43:22;;;;;;;4.30;2.20;;;;;;;;;;1753898;82;21022;-79
2022/06/08 08:45:56;;;;;;;3.83;2.15;;;;;;;;;;1754294;82;21010;-79
2022/06/08 08:48:26;;;;;;;2.10;1.90;;;;;;;;;;1753997;81;21069;-79
2022/06/08 08:50:59;;;;;;;3.70;1.82;;;;;;;;;;1754881;81;21073;-80
2022/06/08 08:55:56;;;;;;;2.60;2.02;;;;;;;;;;1819799;79;22860;-79
2022/06/08 08:58:24;;;;;;;4.35;2.00;;;;;;;;;;1793085;80;21000;-80
2022/06/08 09:00:52;;;;;;;2.87;2.15;;;;;;;;;;1793094;80;21023;-80
2022/06/08 09:03:20;;;;;;;18.10;3.33;;;;;;;;;;1793008;79;22153;-80
2022/06/08 09:05:47;;;;;;;2.87;2.20;;;;;;;;;;1793046;80;21590;-80
2022/06/08 09:08:15;;;;;;;2.70;2.02;;;;;;;;;;1793177;80;21004;-79
2022/06/08 09:10:43;;;;;;;3.27;2.02;;;;;;;;;;1792788;80;21619;-80
2022/06/08 09:13:11;;;;;;;3.80;1.98;;;;;;;;;;1793169;80;21020;-78
2022/06/08 09:15:40;;;;;;;3.12;2.05;;;;;;;;;;1791799;80;21035;-76
2022/06/08 09:18:06;;;;;;;2.72;2.17;;;;;;;;;;1792976;80;21055;-77
2022/06/08 09:20:35;;;;;;;7.92;2.30;;;;;;;;;;1789868;80;21043;-77
2022/06/08 09:23:04;;;;;;;5.53;2.20;;;;;;;;;;1793068;80;21039;-78
2022/06/08 09:25:30;;;;;;;3.08;2.20;;;;;;;;;;1793041;80;21020;-79
2022/06/08 09:27:57;;;;;;;2.30;2.10;;;;;;;;;;1784940;80;21008;-78
2022/06/08 09:30:24;;;;;;;3.45;2.20;;;;;;;;;;1758123;81;21012;-78
2022/06/08 09:32:53;;;;;;;3.20;2.05;;;;;;;;;;1726611;83;21587;-78
2022/06/08 09:35:32;;;;;;;2.60;2.08;;;;;;;;;;1761092;81;21536;-79
2022/06/08 09:38:06;;;;;;;6.95;2.35;;;;;;;;;;1760357;81;21571;-78
2022/06/08 09:40:43;;;;;;;4.05;2.45;;;;;;;;;;1761203;81;21013;-78
2022/06/08 09:43:28;;;;;;;2.65;2.17;;;;;;;;;;1761127;81;21016;-79
2022/06/08 09:45:59;;;;;;;8.38;3.37;;;;;;;;;;1759261;81;21004;-78
2022/06/08 09:51:29;;;;;;;2.58;2.10;;;;;;;;;;1723387;83;21563;-78
2022/06/08 09:54:03;;;;;;;4.62;1.92;;;;;;;;;;1716519;83;20991;-77
2022/06/08 09:56:40;;;;;;;3.12;2.00;;;;;;;;;;1708231;84;21098;-78
2022/06/08 09:59:12;;;;;;;4.47;2.77;;;;;;;;;;1708154;84;21078;-77
2022/06/08 10:01:42;;;;;;;7.30;2.42;;;;;;;;;;1707785;84;21126;-78
2022/06/08 10:04:12;;;;;;;6.60;2.20;;;;;;;;;;1679274;85;21148;-79
2022/06/08 10:06:41;;;;;;;4.50;2.17;;;;;;;;;;1662411;85;21061;-79
2022/06/08 10:09:18;;;;;;;4.37;2.08;;;;;;;;;;1678891;85;21034;-79
2022/06/08 10:11:46;;;;;;;6.80;2.50;;;;;;;;;;1689308;84;21051;-78
2022/06/08 10:14:14;;;;;;;4.83;2.17;;;;;;;;;;1707139;84;21094;-78
2022/06/08 10:16:44;;;;;;;3.00;2.20;;;;;;;;;;1695661;84;21644;-78
2022/06/08 10:19:12;;;;;;;7.22;2.12;;;;;;;;;;1737545;82;21617;-79
2022/06/08 10:21:41;;;;;;;9.08;2.87;;;;;;;;;;1737216;82;21044;-79
2022/06/08 10:24:13;;;;;;;4.70;2.15;;;;;;;;;;1692769;84;21495;-79
2022/06/08 10:26:42;;;;;;;3.33;2.20;;;;;;;;;;1708247;84;21097;-78
2022/06/08 10:29:23;;;;;;;2.90;2.25;;;;;;;;;;1715567;83;21011;-79
2022/06/08 10:32:04;;;;;;;3.40;2.30;;;;;;;;;;1727611;82;21129;-78
2022/06/08 10:34:31;;;;;;;4.58;2.20;;;;;;;;;;1725633;82;21500;-78
2022/06/08 10:37:03;;;;;;;3.08;2.20;;;;;;;;;;1721859;83;21009;-77
2022/06/08 10:39:28;;;;;;;2.37;2.17;;;;;;;;;;1726650;82;20998;-78
2022/06/08 10:44:59;;;;;;;8.48;2.30;;;;;;;;;;1737054;82;21009;-82
2022/06/08 10:47:27;;;;;;;7.12;2.30;;;;;;;;;;1729533;82;21048;-82
2022/06/08 10:49:54;;;;;;;16.17;3.02;;;;;;;;;;1725716;82;21017;-81
2022/06/08 10:52:22;;;;;;;3.52;2.25;;;;;;;;;;1737439;82;21005;-82
2022/06/08 10:54:53;;;;;;;2.30;2.10;;;;;;;;;;1723101;82;21037;-83
2022/06/08 10:57:37;;;;;;;4.42;2.05;;;;;;;;;;1707946;84;21265;-82
2022/06/08 11:00:08;;;;;;;4.10;2.05;;;;;;;;;;1710681;83;20986;-82
2022/06/08 11:02:34;;;;;;;6.37;2.60;;;;;;;;;;1702683;82;21626;-83
2022/06/08 11:05:10;;;;;;;11.28;2.85;;;;;;;;;;1729261;82;21053;-83
2022/06/08 11:07:56;;;;;;;11.38;2.47;;;;;;;;;;1784571;80;21020;-82
2022/06/08 11:10:24;;;;;;;4.10;2.30;;;;;;;;;;1761118;80;21029;-82
2022/06/08 11:12:52;;;;;;;2.72;2.37;;;;;;;;;;1750736;80;21060;-82
2022/06/08 11:15:36;;;;;;;2.80;2.30;;;;;;;;;;1785232;80;21055;-82
2022/06/08 11:18:05;;;;;;;58.75;6.50;;;;;;;;;;1787984;80;21112;-77
2022/06/08 11:20:37;;;;;;;5.28;2.58;;;;;;;;;;1776288;80;20985;-83
2022/06/08 11:23:22;;;;;;;3.90;2.20;;;;;;;;;;1760302;80;21045;-83
2022/06/08 11:25:50;;;;;;;3.22;2.10;;;;;;;;;;1784144;80;21060;-81
2022/06/08 11:28:24;;;;;;;3.72;2.22;;;;;;;;;;1753255;80;21108;-82
2022/06/08 11:30:51;;;;;;;2.37;2.02;;;;;;;;;;1744693;82;21044;-80
2022/06/08 11:33:17;;;;;;;3.45;2.10;;;;;;;;;;1745039;82;21049;-82
2022/06/08 11:36:02;;;;;;;21.37;3.50;;;;;;;;;;1755009;80;21001;-82
2022/06/08 11:38:42;;;;;;;5.47;2.10;;;;;;;;;;1761426;81;21104;-82
2022/06/08 11:41:22;;;;;;;2.70;1.90;;;;;;;;;;1695819;81;21560;-81
2022/06/08 11:43:51;;;;;;;3.42;2.20;;;;;;;;;;1751286;80;21080;-82
2022/06/08 11:46:21;;;;;;;6.62;2.52;;;;;;;;;;1728828;82;21081;-82
2022/06/08 11:48:49;;;;;;;16.20;3.00;;;;;;;;;;1715398;84;21074;-82
2022/06/08 11:51:29;;;;;;;2.52;1.98;;;;;;;;;;1742918;82;21525;-81
2022/06/08 11:53:58;;;;;;;2.70;2.02;;;;;;;;;;1744550;82;21053;-81
2022/06/08 11:56:27;;;;;;;5.53;2.45;;;;;;;;;;1727809;82;21526;-81
2022/06/08 11:58:55;;;;;;;4.55;2.20;;;;;;;;;;1706878;84;21010;-81
2022/06/08 12:01:22;;;;;;;3.27;1.87;;;;;;;;;;1777550;79;21075;-81
2022/06/08 12:03:54;;;;;;;4.42;1.90;;;;;;;;;;1757823;81;21052;-80
2022/06/08 12:06:22;;;;;;;2.10;1.90;;;;;;;;;;1748854;81;21029;-80
2022/06/08 12:08:53;;;;;;;4.62;2.20;;;;;;;;;;1748490;81;20997;-79
2022/06/08 12:11:20;;;;;;;2.20;1.95;;;;;;;;;;1767455;81;21034;-80
2022/06/08 12:14:03;;;;;;;4.65;2.10;;;;;;;;;;1770694;81;21588;-81
2022/06/08 12:16:34;;;;;;;2.75;1.82;;;;;;;;;;1731176;82;21026;-81
2022/06/08 12:19:06;;;;;;;4.08;2.27;;;;;;;;;;1713301;83;21071;-81
2022/06/08 12:21:34;;;;;;;5.40;1.98;;;;;;;;;;1685203;84;21065;-82
2022/06/08 12:24:02;;;;;;;25.32;3.35;;;;;;;;;;1761749;81;21611;-82
2022/06/08 12:26:48;;;;;;;3.40;2.15;;;;;;;;;;1765365;81;21060;-81
2022/06/08 12:29:18;;;;;;;3.90;2.10;;;;;;;;;;1746447;82;21021;-81
2022/06/08 12:31:45;;;;;;;3.75;2.20;;;;;;;;;;1749373;81;21037;-81
2022/06/08 12:34:25;;;;;;;2.30;2.10;;;;;;;;;;1743989;82;21104;-82
2022/06/08 12:36:51;;;;;;;2.10;1.90;;;;;;;;;;1739618;82;21025;-81
2022/06/08 12:39:18;;;;;;;2.42;1.80;;;;;;;;;;1773539;81;21001;-82
2022/06/08 12:41:45;;;;;;;4.05;2.30;;;;;;;;;;1778825;81;21647;-81
2022/06/08 12:44:19;;;;;;;2.95;2.10;;;;;;;;;;1778812;81;21075;-81
2022/06/08 12:46:47;;;;;;;4.15;2.10;;;;;;;;;;1779300;81;21048;-81
2022/06/08 12:49:24;;;;;;;2.52;2.00;;;;;;;;;;1781422;81;21564;-79
2022/06/08 12:51:57;;;;;;;2.55;2.20;;;;;;;;;;1762758;81;21052;-82
2022/06/08 12:54:25;;;;;;;2.40;1.92;;;;;;;;;;1778327;81;20969;-82
2022/06/08 12:56:52;;;;;;;3.40;2.00;;;;;;;;;;1741208;82;21143;-81
2022/06/08 12:59:19;;;;;;;4.22;2.30;;;;;;;;;;1775366;79;21060;-79
2022/06/08 13:01:45;;;;;;;7.78;2.85;;;;;;;;;;1775523;80;21564;-79
2022/06/08 13:04:12;;;;;;;2.85;2.08;;;;;;;;;;1778555;79;21035;-79
2022/06/08 13:06:38;;;;;;;3.45;1.75;;;;;;;;;;1778622;80;20981;-79
2022/06/08 13:09:05;;;;;;;4.08;2.00;;;;;;;;;;1774910;80;21068;-76
2022/06/08 13:11:31;;;;;;;3.47;2.00;;;;;;;;;;1773418;80;21048;-77
2022/06/08 13:13:57;;;;;;;3.58;2.10;;;;;;;;;;1778013;81;21056;-76
2022/06/08 13:16:25;;;;;;;5.67;2.00;;;;;;;;;;1776908;81;21046;-77
2022/06/08 13:18:51;;;;;;;3.00;1.92;;;;;;;;;;1775328;80;21042;-78
2022/06/08 13:21:18;;;;;;;1.92;1.75;;;;;;;;;;1750345;81;20977;-76
2022/06/08 13:23:44;;;;;;;3.50;1.98;;;;;;;;;;1759740;80;21057;-76
2022/06/08 13:26:15;;;;;;;4.95;1.70;;;;;;;;;;1737523;82;21085;-77
2022/06/08 13:28:41;;;;;;;2.33;1.70;;;;;;;;;;1701939;82;21107;-77
2022/06/08 13:31:09;;;;;;;4.10;2.10;;;;;;;;;;1711496;84;21021;-75
2022/06/08 13:36:22;;;;;;;3.83;1.80;;;;;;;;;;1761510;81;21033;-80
2022/06/08 13:38:49;;;;;;;6.97;4.50;;;;;;;;;;1735651;82;21033;-76
2022/06/08 13:41:15;;;;;;;4.78;4.00;;;;;;;;;;1714722;82;20978;-77
2022/06/08 13:43:41;;;;;;;16.65;3.40;;;;;;;;;;1778290;81;21037;-76
2022/06/08 13:46:09;;;;;;;2.58;2.00;;;;;;;;;;1770832;81;20998;-76
2022/06/08 13:48:35;;;;;;;2.27;1.95;;;;;;;;;;1758971;80;21077;-75
2022/06/08 13:51:01;;;;;;;2.47;2.10;;;;;;;;;;1774801;80;21037;-78
2022/06/08 13:53:29;;;;;;;2.00;1.80;;;;;;;;;;1778651;80;21060;-78
2022/06/08 13:55:55;;;;;;;3.45;2.00;;;;;;;;;;1781982;80;21064;-78
2022/06/08 13:58:23;;;;;;;2.05;1.85;;;;;;;;;;1778673;79;21060;-77
2022/06/08 14:00:56;;;;;;;3.37;1.75;;;;;;;;;;1720759;82;21116;-80
2022/06/08 14:03:28;;;;;;;2.25;1.90;;;;;;;;;;1710400;82;21020;-81
2022/06/08 14:14:13;;;;;;;2.83;2.12;;;;;;;;;;1784524;80;21044;-77
2022/06/08 14:16:40;;;;;;;6.92;2.10;;;;;;;;;;1754625;80;21026;-79
2022/06/08 14:19:10;;;;;;;2.90;2.10;;;;;;;;;;1756023;81;21503;-78
2022/06/08 14:21:36;;;;;;;3.25;2.08;;;;;;;;;;1756696;80;21119;-78
2022/06/08 14:24:03;;;;;;;3.33;1.90;;;;;;;;;;1781472;80;21040;-77
2022/06/08 14:26:31;;;;;;;7.03;2.10;;;;;;;;;;1769259;80;20977;-78
2022/06/08 14:28:58;;;;;;;5.90;2.12;;;;;;;;;;1776134;80;20977;-78
2022/06/08 14:31:29;;;;;;;3.00;2.20;;;;;;;;;;1750454;82;21021;-78
2022/06/08 14:33:56;;;;;;;2.65;2.10;;;;;;;;;;1766456;80;21052;-77
2022/06/08 14:36:23;;;;;;;4.33;2.10;;;;;;;;;;1783550;80;21067;-78
2022/06/08 14:38:48;;;;;;;2.40;2.00;;;;;;;;;;1783000;80;21655;-77
2022/06/08 14:41:14;;;;;;;3.25;1.90;;;;;;;;;;1772816;80;21004;-77
2022/06/08 14:43:42;;;;;;;2.17;1.90;;;;;;;;;;1775702;79;21044;-77
2022/06/08 14:46:13;;;;;;;39.55;10.15;;;;;;;;;;1781921;80;21044;-78
2022/06/08 14:48:41;;;;;;;9.43;6.28;;;;;;;;;;1770915;80;21044;-78
2022/06/08 14:51:09;;;;;;;4.05;3.15;;;;;;;;;;1769650;80;21036;-76
2022/06/08 14:53:36;;;;;;;2.37;2.00;;;;;;;;;;1781000;79;21036;-76
2022/06/08 14:58:51;;;;;;;2.00;1.80;;;;;;;;;;1762305;80;21096;-80
2022/06/08 15:01:19;;;;;;;3.40;1.90;;;;;;;;;;1754943;80;21107;-81
2022/06/08 15:03:46;;;;;;;3.67;2.10;;;;;;;;;;1778248;80;20976;-80
2022/06/08 15:06:14;;;;;;;3.15;2.00;;;;;;;;;;1781577;80;20988;-79
2022/06/08 15:08:40;;;;;;;3.80;2.00;;;;;;;;;;1780884;80;21798;-80
2022/06/08 15:14:06;;;;;;;3.33;1.85;;;;;;;;;;1780052;80;21051;-80
2022/06/08 15:16:31;;;;;;;9.15;2.12;;;;;;;;;;1781534;80;21092;-82
2022/06/08 15:18:58;;;;;;;2.45;2.00;;;;;;;;;;1778834;80;21076;-76
2022/06/08 15:21:24;;;;;;;4.67;2.02;;;;;;;;;;1785962;80;20994;-74
2022/06/08 15:23:50;;;;;;;2.50;1.98;;;;;;;;;;1755116;80;21033;-76
2022/06/08 15:26:16;;;;;;;2.77;2.10;;;;;;;;;;1774392;80;21032;-78
2022/06/08 15:28:42;;;;;;;3.15;2.15;;;;;;;;;;1796513;79;21024;-78